sensor_id;sensor_type;location;lat;lon;timestamp;pressure;altitude;pressure_sealevel;temperature
74374;BMP180;62809;51.090;-115.358;2022-11-10T00:00:39;86850.00;;;20.50
74374;BMP180;62809;51.090;-115.358;2022-11-10T00:03:08;86850.80;;;20.50
74374;BMP180;62809;51.090;-115.358;2022-11-10T00:05:38;86861.20;;;20.50
74374;BMP180;62809;51.090;-115.358;2022-11-10T00:08:08;86865.80;;;20.48
74374;BMP180;62809;51.090;-115.358;2022-11-10T00:10:43;86868.00;;;20.40
74374;BMP180;62809;51.090;-115.358;2022-11-10T00:13:36;86870.00;;;20.40
74374;BMP180;62809;51.090;-115.358;2022-11-10T00:16:23;86875.20;;;20.40
74374;BMP180;62809;51.090;-115.358;2022-11-10T00:19:09;86877.40;;;20.30
74374;BMP180;62809;51.090;-115.358;2022-11-10T00:21:36;86877.40;;;20.30
74374;BMP180;62809;51.090;-115.358;2022-11-10T00:24:04;86881.20;;;20.28
74374;BMP180;62809;51.090;-115.358;2022-11-10T00:26:31;86885.60;;;20.20
74374;BMP180;62809;51.090;-115.358;2022-11-10T00:28:58;86888.40;;;20.20
74374;BMP180;62809;51.090;-115.358;2022-11-10T00:31:26;86895.00;;;20.20
74374;BMP180;62809;51.090;-115.358;2022-11-10T00:33:57;86905.20;;;20.10
74374;BMP180;62809;51.090;-115.358;2022-11-10T00:36:24;86906.00;;;20.10
74374;BMP180;62809;51.090;-115.358;2022-11-10T00:38:52;86911.40;;;20.10
74374;BMP180;62809;51.090;-115.358;2022-11-10T00:41:19;86915.60;;;20.00
74374;BMP180;62809;51.090;-115.358;2022-11-10T00:43:47;86922.80;;;20.00
74374;BMP180;62809;51.090;-115.358;2022-11-10T00:46:15;86926.60;;;20.00
74374;BMP180;62809;51.090;-115.358;2022-11-10T00:48:42;86930.60;;;19.90
74374;BMP180;62809;51.090;-115.358;2022-11-10T00:51:23;86937.20;;;19.90
74374;BMP180;62809;51.090;-115.358;2022-11-10T00:53:51;86943.20;;;19.90
74374;BMP180;62809;51.090;-115.358;2022-11-10T00:56:19;86947.80;;;19.80
74374;BMP180;62809;51.090;-115.358;2022-11-10T00:58:47;86953.80;;;19.80
74374;BMP180;62809;51.090;-115.358;2022-11-10T01:01:16;86954.40;;;19.80
74374;BMP180;62809;51.090;-115.358;2022-11-10T01:03:44;86957.80;;;19.80
74374;BMP180;62809;51.090;-115.358;2022-11-10T01:06:14;86960.20;;;19.70
74374;BMP180;62809;51.090;-115.358;2022-11-10T01:08:45;86961.00;;;19.70
74374;BMP180;62809;51.090;-115.358;2022-11-10T01:11:22;86960.80;;;19.70
74374;BMP180;62809;51.090;-115.358;2022-11-10T01:13:54;86964.20;;;19.68
74374;BMP180;62809;51.090;-115.358;2022-11-10T01:16:28;86962.40;;;19.60
74374;BMP180;62809;51.090;-115.358;2022-11-10T01:18:59;86962.60;;;19.60
74374;BMP180;62809;51.090;-115.358;2022-11-10T01:21:30;86971.00;;;19.60
74374;BMP180;62809;51.090;-115.358;2022-11-10T01:23:57;86973.40;;;19.50
74374;BMP180;62809;51.090;-115.358;2022-11-10T01:26:25;86980.20;;;19.50
74374;BMP180;62809;51.090;-115.358;2022-11-10T01:28:52;86988.40;;;19.50
74374;BMP180;62809;51.090;-115.358;2022-11-10T01:31:21;86987.80;;;19.42
74374;BMP180;62809;51.090;-115.358;2022-11-10T01:33:48;86991.40;;;19.40
74374;BMP180;62809;51.090;-115.358;2022-11-10T01:36:15;87000.80;;;19.40
74374;BMP180;62809;51.090;-115.358;2022-11-10T01:38:43;87008.00;;;19.40
74374;BMP180;62809;51.090;-115.358;2022-11-10T01:41:12;87008.00;;;19.30
74374;BMP180;62809;51.090;-115.358;2022-11-10T01:43:44;87005.20;;;19.30
74374;BMP180;62809;51.090;-115.358;2022-11-10T01:46:12;87007.00;;;19.30
74374;BMP180;62809;51.090;-115.358;2022-11-10T01:48:54;87005.60;;;19.20
74374;BMP180;62809;51.090;-115.358;2022-11-10T01:54:09;87009.20;;;19.20
74374;BMP180;62809;51.090;-115.358;2022-11-10T01:56:47;87015.20;;;19.12
74374;BMP180;62809;51.090;-115.358;2022-11-10T01:59:26;87019.20;;;19.10
74374;BMP180;62809;51.090;-115.358;2022-11-10T02:02:17;87019.20;;;19.10
74374;BMP180;62809;51.090;-115.358;2022-11-10T02:04:52;87024.20;;;19.08
74374;BMP180;62809;51.090;-115.358;2022-11-10T02:07:21;87024.60;;;19.00
74374;BMP180;62809;51.090;-115.358;2022-11-10T02:09:52;87026.80;;;19.00
74374;BMP180;62809;51.090;-115.358;2022-11-10T02:12:22;87034.40;;;19.00
74374;BMP180;62809;51.090;-115.358;2022-11-10T02:15:08;87041.60;;;18.96
74374;BMP180;62809;51.090;-115.358;2022-11-10T02:17:36;87041.80;;;18.90
74374;BMP180;62809;51.090;-115.358;2022-11-10T02:20:12;87045.00;;;18.90
74374;BMP180;62809;51.090;-115.358;2022-11-10T02:22:43;87051.20;;;18.90
74374;BMP180;62809;51.090;-115.358;2022-11-10T02:25:18;87046.60;;;18.82
74374;BMP180;62809;51.090;-115.358;2022-11-10T02:27:45;87052.80;;;18.80
74374;BMP180;62809;51.090;-115.358;2022-11-10T02:30:14;87049.20;;;18.80
74374;BMP180;62809;51.090;-115.358;2022-11-10T02:32:43;87058.40;;;18.74
74374;BMP180;62809;51.090;-115.358;2022-11-10T02:35:11;87059.60;;;18.70
74374;BMP180;62809;51.090;-115.358;2022-11-10T02:37:38;87054.60;;;18.70
74374;BMP180;62809;51.090;-115.358;2022-11-10T02:40:09;87054.00;;;18.70
74374;BMP180;62809;51.090;-115.358;2022-11-10T02:42:36;87058.60;;;18.60
74374;BMP180;62809;51.090;-115.358;2022-11-10T02:45:04;87060.00;;;18.60
74374;BMP180;62809;51.090;-115.358;2022-11-10T02:47:32;87068.00;;;18.60
74374;BMP180;62809;51.090;-115.358;2022-11-10T02:50:04;87068.60;;;18.60
74374;BMP180;62809;51.090;-115.358;2022-11-10T02:52:31;87068.20;;;18.50
74374;BMP180;62809;51.090;-115.358;2022-11-10T02:55:04;87069.00;;;18.50
74374;BMP180;62809;51.090;-115.358;2022-11-10T02:57:31;87063.60;;;18.50
74374;BMP180;62809;51.090;-115.358;2022-11-10T02:59:58;87065.80;;;18.44
74374;BMP180;62809;51.090;-115.358;2022-11-10T03:02:25;87069.40;;;18.40
74374;BMP180;62809;51.090;-115.358;2022-11-10T03:04:52;87073.20;;;18.40
74374;BMP180;62809;51.090;-115.358;2022-11-10T03:07:19;87076.80;;;18.40
74374;BMP180;62809;51.090;-115.358;2022-11-10T03:09:46;87076.60;;;18.40
74374;BMP180;62809;51.090;-115.358;2022-11-10T03:12:17;87077.00;;;18.40
74374;BMP180;62809;51.090;-115.358;2022-11-10T03:14:44;87078.20;;;18.40
74374;BMP180;62809;51.090;-115.358;2022-11-10T03:17:16;87078.60;;;18.40
74374;BMP180;62809;51.090;-115.358;2022-11-10T03:19:43;87073.80;;;18.40
74374;BMP180;62809;51.090;-115.358;2022-11-10T03:22:10;87071.80;;;18.40
74374;BMP180;62809;51.090;-115.358;2022-11-10T03:24:38;87075.00;;;18.38
74374;BMP180;62809;51.090;-115.358;2022-11-10T03:27:05;87074.00;;;18.30
74374;BMP180;62809;51.090;-115.358;2022-11-10T03:29:33;87080.60;;;18.30
74374;BMP180;62809;51.090;-115.358;2022-11-10T03:32:02;87083.20;;;18.30
74374;BMP180;62809;51.090;-115.358;2022-11-10T03:34:29;87089.20;;;18.26
74374;BMP180;62809;51.090;-115.358;2022-11-10T03:36:56;87097.20;;;18.20
74374;BMP180;62809;51.090;-115.358;2022-11-10T03:39:23;87095.00;;;18.20
74374;BMP180;62809;51.090;-115.358;2022-11-10T03:41:52;87089.00;;;18.20
74374;BMP180;62809;51.090;-115.358;2022-11-10T03:44:19;87093.60;;;18.10
74374;BMP180;62809;51.090;-115.358;2022-11-10T03:46:46;87094.00;;;18.10
74374;BMP180;62809;51.090;-115.358;2022-11-10T03:49:19;87093.80;;;18.10
74374;BMP180;62809;51.090;-115.358;2022-11-10T03:51:51;87095.60;;;18.08
74374;BMP180;62809;51.090;-115.358;2022-11-10T03:54:18;87093.20;;;18.00
74374;BMP180;62809;51.090;-115.358;2022-11-10T03:56:45;87092.60;;;18.00
74374;BMP180;62809;51.090;-115.358;2022-11-10T03:59:15;87089.80;;;18.00
74374;BMP180;62809;51.090;-115.358;2022-11-10T04:01:42;87097.00;;;18.00
74374;BMP180;62809;51.090;-115.358;2022-11-10T04:04:10;87101.00;;;17.94
74374;BMP180;62809;51.090;-115.358;2022-11-10T04:06:55;87100.60;;;17.90
74374;BMP180;62809;51.090;-115.358;2022-11-10T04:09:41;87101.80;;;17.90
74374;BMP180;62809;51.090;-115.358;2022-11-10T04:12:08;87103.20;;;17.90
74374;BMP180;62809;51.090;-115.358;2022-11-10T04:14:53;87101.60;;;17.80
74374;BMP180;62809;51.090;-115.358;2022-11-10T04:17:38;87108.60;;;17.80
74374;BMP180;62809;51.090;-115.358;2022-11-10T04:20:06;87110.20;;;17.80
74374;BMP180;62809;51.090;-115.358;2022-11-10T04:22:37;87112.80;;;17.80
74374;BMP180;62809;51.090;-115.358;2022-11-10T04:25:22;87112.00;;;17.80
74374;BMP180;62809;51.090;-115.358;2022-11-10T04:27:51;87110.80;;;17.80
74374;BMP180;62809;51.090;-115.358;2022-11-10T04:30:18;87114.40;;;17.80
74374;BMP180;62809;51.090;-115.358;2022-11-10T04:32:46;87114.20;;;17.80
74374;BMP180;62809;51.090;-115.358;2022-11-10T04:35:13;87115.60;;;17.88
74374;BMP180;62809;51.090;-115.358;2022-11-10T04:37:40;87117.80;;;17.90
74374;BMP180;62809;51.090;-115.358;2022-11-10T04:40:08;87120.40;;;17.90
74374;BMP180;62809;51.090;-115.358;2022-11-10T04:42:39;87127.60;;;17.90
74374;BMP180;62809;51.090;-115.358;2022-11-10T04:45:06;87133.80;;;17.88
74374;BMP180;62809;51.090;-115.358;2022-11-10T04:47:33;87135.40;;;17.82
74374;BMP180;62809;51.090;-115.358;2022-11-10T04:50:00;87137.40;;;17.80
74374;BMP180;62809;51.090;-115.358;2022-11-10T04:52:28;87142.20;;;17.80
74374;BMP180;62809;51.090;-115.358;2022-11-10T04:54:58;87145.20;;;17.80
74374;BMP180;62809;51.090;-115.358;2022-11-10T04:57:24;87146.60;;;17.74
74374;BMP180;62809;51.090;-115.358;2022-11-10T04:59:52;87146.80;;;17.70
74374;BMP180;62809;51.090;-115.358;2022-11-10T05:02:19;87149.80;;;17.70
74374;BMP180;62809;51.090;-115.358;2022-11-10T05:04:47;87150.20;;;17.70
74374;BMP180;62809;51.090;-115.358;2022-11-10T05:07:17;87155.80;;;17.70
74374;BMP180;62809;51.090;-115.358;2022-11-10T05:09:44;87160.80;;;17.70
74374;BMP180;62809;51.090;-115.358;2022-11-10T05:12:11;87160.80;;;17.70
74374;BMP180;62809;51.090;-115.358;2022-11-10T05:14:37;87162.00;;;17.70
74374;BMP180;62809;51.090;-115.358;2022-11-10T05:17:05;87160.20;;;17.70
74374;BMP180;62809;51.090;-115.358;2022-11-10T05:19:35;87155.60;;;17.70
74374;BMP180;62809;51.090;-115.358;2022-11-10T05:22:03;87155.00;;;17.78
74374;BMP180;62809;51.090;-115.358;2022-11-10T05:24:31;87156.00;;;17.80
74374;BMP180;62809;51.090;-115.358;2022-11-10T05:27:01;87156.00;;;17.80
74374;BMP180;62809;51.090;-115.358;2022-11-10T05:29:31;87155.20;;;17.80
74374;BMP180;62809;51.090;-115.358;2022-11-10T05:31:59;87159.40;;;17.80
74374;BMP180;62809;51.090;-115.358;2022-11-10T05:34:26;87158.00;;;17.80
74374;BMP180;62809;51.090;-115.358;2022-11-10T05:36:54;87159.20;;;17.80
74374;BMP180;62809;51.090;-115.358;2022-11-10T05:39:21;87152.60;;;17.70
74374;BMP180;62809;51.090;-115.358;2022-11-10T05:41:51;87151.60;;;17.70
74374;BMP180;62809;51.090;-115.358;2022-11-10T05:44:18;87155.00;;;17.70
74374;BMP180;62809;51.090;-115.358;2022-11-10T05:46:45;87155.40;;;17.70
74374;BMP180;62809;51.090;-115.358;2022-11-10T05:49:15;87157.40;;;17.70
74374;BMP180;62809;51.090;-115.358;2022-11-10T05:51:42;87158.40;;;17.70
74374;BMP180;62809;51.090;-115.358;2022-11-10T05:54:09;87162.00;;;17.72
74374;BMP180;62809;51.090;-115.358;2022-11-10T05:56:36;87158.80;;;17.80
74374;BMP180;62809;51.090;-115.358;2022-11-10T05:59:04;87156.80;;;17.80
74374;BMP180;62809;51.090;-115.358;2022-11-10T06:01:31;87158.40;;;17.80
74374;BMP180;62809;51.090;-115.358;2022-11-10T06:03:58;87161.40;;;17.80
74374;BMP180;62809;51.090;-115.358;2022-11-10T06:06:28;87162.20;;;17.80
74374;BMP180;62809;51.090;-115.358;2022-11-10T06:08:59;87160.00;;;17.80
74374;BMP180;62809;51.090;-115.358;2022-11-10T06:11:26;87164.60;;;17.80
74374;BMP180;62809;51.090;-115.358;2022-11-10T06:13:55;87168.80;;;17.80
74374;BMP180;62809;51.090;-115.358;2022-11-10T06:16:25;87174.60;;;17.78
74374;BMP180;62809;51.090;-115.358;2022-11-10T06:18:52;87182.20;;;17.70
74374;BMP180;62809;51.090;-115.358;2022-11-10T06:21:19;87177.80;;;17.70
74374;BMP180;62809;51.090;-115.358;2022-11-10T06:23:47;87183.80;;;17.70
74374;BMP180;62809;51.090;-115.358;2022-11-10T06:26:13;87188.80;;;17.62
74374;BMP180;62809;51.090;-115.358;2022-11-10T06:28:40;87192.80;;;17.60
74374;BMP180;62809;51.090;-115.358;2022-11-10T06:31:08;87186.00;;;17.60
74374;BMP180;62809;51.090;-115.358;2022-11-10T06:33:34;87179.80;;;17.60
74374;BMP180;62809;51.090;-115.358;2022-11-10T06:36:04;87177.80;;;17.60
74374;BMP180;62809;51.090;-115.358;2022-11-10T06:38:32;87182.20;;;17.68
74374;BMP180;62809;51.090;-115.358;2022-11-10T06:40:59;87186.80;;;17.70
74374;BMP180;62809;51.090;-115.358;2022-11-10T06:43:28;87188.60;;;17.70
74374;BMP180;62809;51.090;-115.358;2022-11-10T06:45:59;87191.80;;;17.70
74374;BMP180;62809;51.090;-115.358;2022-11-10T06:48:26;87199.00;;;17.66
74374;BMP180;62809;51.090;-115.358;2022-11-10T06:50:53;87202.00;;;17.60
74374;BMP180;62809;51.090;-115.358;2022-11-10T06:53:20;87202.40;;;17.60
74374;BMP180;62809;51.090;-115.358;2022-11-10T06:55:47;87203.20;;;17.60
74374;BMP180;62809;51.090;-115.358;2022-11-10T06:58:14;87207.00;;;17.60
74374;BMP180;62809;51.090;-115.358;2022-11-10T07:00:41;87203.80;;;17.50
74374;BMP180;62809;51.090;-115.358;2022-11-10T07:03:13;87199.60;;;17.50
74374;BMP180;62809;51.090;-115.358;2022-11-10T07:05:46;87202.40;;;17.50
74374;BMP180;62809;51.090;-115.358;2022-11-10T07:08:15;87200.60;;;17.50
74374;BMP180;62809;51.090;-115.358;2022-11-10T07:10:49;87201.00;;;17.50
74374;BMP180;62809;51.090;-115.358;2022-11-10T07:13:17;87200.80;;;17.50
74374;BMP180;62809;51.090;-115.358;2022-11-10T07:15:44;87202.60;;;17.50
74374;BMP180;62809;51.090;-115.358;2022-11-10T07:18:12;87206.20;;;17.50
74374;BMP180;62809;51.090;-115.358;2022-11-10T07:20:40;87204.40;;;17.50
74374;BMP180;62809;51.090;-115.358;2022-11-10T07:23:08;87213.00;;;17.50
74374;BMP180;62809;51.090;-115.358;2022-11-10T07:25:39;87216.20;;;17.50
74374;BMP180;62809;51.090;-115.358;2022-11-10T07:28:09;87215.20;;;17.50
74374;BMP180;62809;51.090;-115.358;2022-11-10T07:30:37;87213.60;;;17.46
74374;BMP180;62809;51.090;-115.358;2022-11-10T07:33:13;87216.80;;;17.40
74374;BMP180;62809;51.090;-115.358;2022-11-10T07:35:41;87214.80;;;17.42
74374;BMP180;62809;51.090;-115.358;2022-11-10T07:38:11;87217.60;;;17.42
74374;BMP180;62809;51.090;-115.358;2022-11-10T07:40:40;87216.20;;;17.50
74374;BMP180;62809;51.090;-115.358;2022-11-10T07:43:10;87216.20;;;17.50
74374;BMP180;62809;51.090;-115.358;2022-11-10T07:45:37;87213.60;;;17.50
74374;BMP180;62809;51.090;-115.358;2022-11-10T07:48:08;87217.40;;;17.50
74374;BMP180;62809;51.090;-115.358;2022-11-10T07:50:36;87220.20;;;17.50
74374;BMP180;62809;51.090;-115.358;2022-11-10T07:53:15;87218.40;;;17.50
74374;BMP180;62809;51.090;-115.358;2022-11-10T07:55:45;87227.80;;;17.50
74374;BMP180;62809;51.090;-115.358;2022-11-10T07:58:17;87222.40;;;17.50
74374;BMP180;62809;51.090;-115.358;2022-11-10T08:00:48;87214.60;;;17.48
74374;BMP180;62809;51.090;-115.358;2022-11-10T08:03:19;87215.20;;;17.40
74374;BMP180;62809;51.090;-115.358;2022-11-10T08:05:46;87216.00;;;17.40
74374;BMP180;62809;51.090;-115.358;2022-11-10T08:08:14;87216.20;;;17.40
74374;BMP180;62809;51.090;-115.358;2022-11-10T08:10:42;87219.20;;;17.40
74374;BMP180;62809;51.090;-115.358;2022-11-10T08:13:12;87220.80;;;17.40
74374;BMP180;62809;51.090;-115.358;2022-11-10T08:15:43;87219.20;;;17.40
74374;BMP180;62809;51.090;-115.358;2022-11-10T08:18:19;87218.40;;;17.40
74374;BMP180;62809;51.090;-115.358;2022-11-10T08:20:49;87222.20;;;17.42
74374;BMP180;62809;51.090;-115.358;2022-11-10T08:23:17;87223.60;;;17.48
74374;BMP180;62809;51.090;-115.358;2022-11-10T08:25:45;87228.20;;;17.46
74374;BMP180;62809;51.090;-115.358;2022-11-10T08:28:16;87226.40;;;17.40
74374;BMP180;62809;51.090;-115.358;2022-11-10T08:30:45;87226.80;;;17.40
74374;BMP180;62809;51.090;-115.358;2022-11-10T08:33:19;87230.60;;;17.40
74374;BMP180;62809;51.090;-115.358;2022-11-10T08:35:51;87227.00;;;17.40
74374;BMP180;62809;51.090;-115.358;2022-11-10T08:38:22;87225.00;;;17.40
74374;BMP180;62809;51.090;-115.358;2022-11-10T08:40:50;87218.40;;;17.40
74374;BMP180;62809;51.090;-115.358;2022-11-10T08:43:18;87219.20;;;17.38
74374;BMP180;62809;51.090;-115.358;2022-11-10T08:45:45;87218.20;;;17.40
74374;BMP180;62809;51.090;-115.358;2022-11-10T08:48:18;87219.60;;;17.40
74374;BMP180;62809;51.090;-115.358;2022-11-10T08:50:47;87218.60;;;17.40
74374;BMP180;62809;51.090;-115.358;2022-11-10T08:53:23;87221.40;;;17.40
74374;BMP180;62809;51.090;-115.358;2022-11-10T08:55:56;87219.40;;;17.40
74374;BMP180;62809;51.090;-115.358;2022-11-10T08:58:29;87220.20;;;17.40
74374;BMP180;62809;51.090;-115.358;2022-11-10T09:00:59;87224.00;;;17.40
74374;BMP180;62809;51.090;-115.358;2022-11-10T09:03:26;87228.60;;;17.40
74374;BMP180;62809;51.090;-115.358;2022-11-10T09:05:56;87228.60;;;17.32
74374;BMP180;62809;51.090;-115.358;2022-11-10T09:08:24;87230.60;;;17.30
74374;BMP180;62809;51.090;-115.358;2022-11-10T09:10:51;87228.40;;;17.30
74374;BMP180;62809;51.090;-115.358;2022-11-10T09:13:19;87229.60;;;17.30
74374;BMP180;62809;51.090;-115.358;2022-11-10T09:15:49;87228.20;;;17.30
74374;BMP180;62809;51.090;-115.358;2022-11-10T09:18:16;87233.80;;;17.32
74374;BMP180;62809;51.090;-115.358;2022-11-10T09:20:43;87231.20;;;17.38
74374;BMP180;62809;51.090;-115.358;2022-11-10T09:23:17;87232.00;;;17.40
74374;BMP180;62809;51.090;-115.358;2022-11-10T09:25:53;87227.20;;;17.40
74374;BMP180;62809;51.090;-115.358;2022-11-10T09:28:24;87227.40;;;17.40
74374;BMP180;62809;51.090;-115.358;2022-11-10T09:30:52;87220.60;;;17.40
74374;BMP180;62809;51.090;-115.358;2022-11-10T09:33:19;87223.60;;;17.40
74374;BMP180;62809;51.090;-115.358;2022-11-10T09:35:46;87220.80;;;17.40
74374;BMP180;62809;51.090;-115.358;2022-11-10T09:38:16;87218.60;;;17.30
74374;BMP180;62809;51.090;-115.358;2022-11-10T09:41:03;87224.60;;;17.30
74374;BMP180;62809;51.090;-115.358;2022-11-10T09:46:49;87223.40;;;17.30
74374;BMP180;62809;51.090;-115.358;2022-11-10T09:52:02;87229.00;;;17.32
74374;BMP180;62809;51.090;-115.358;2022-11-10T09:57:23;87232.40;;;17.40
74374;BMP180;62809;51.090;-115.358;2022-11-10T09:59:53;87233.00;;;17.40
74374;BMP180;62809;51.090;-115.358;2022-11-10T10:02:43;87230.20;;;17.40
74374;BMP180;62809;51.090;-115.358;2022-11-10T10:08:14;87236.80;;;17.30
74374;BMP180;62809;51.090;-115.358;2022-11-10T10:10:55;87234.40;;;17.30
74374;BMP180;62809;51.090;-115.358;2022-11-10T10:17:03;87240.00;;;17.20
74374;BMP180;62809;51.090;-115.358;2022-11-10T10:19:49;87237.20;;;17.20
74374;BMP180;62809;51.090;-115.358;2022-11-10T10:25:42;87240.40;;;17.30
74374;BMP180;62809;51.090;-115.358;2022-11-10T10:28:30;87245.00;;;17.30
74374;BMP180;62809;51.090;-115.358;2022-11-10T10:31:24;87250.00;;;17.30
74374;BMP180;62809;51.090;-115.358;2022-11-10T10:33:54;87243.80;;;17.30
74374;BMP180;62809;51.090;-115.358;2022-11-10T10:36:30;87240.00;;;17.30
74374;BMP180;62809;51.090;-115.358;2022-11-10T10:39:09;87246.40;;;17.28
74374;BMP180;62809;51.090;-115.358;2022-11-10T10:41:45;87248.00;;;17.22
74374;BMP180;62809;51.090;-115.358;2022-11-10T10:44:21;87246.00;;;17.20
74374;BMP180;62809;51.090;-115.358;2022-11-10T10:47:00;87249.60;;;17.20
74374;BMP180;62809;51.090;-115.358;2022-11-10T10:49:32;87256.80;;;17.20
74374;BMP180;62809;51.090;-115.358;2022-11-10T10:52:15;87259.80;;;17.20
74374;BMP180;62809;51.090;-115.358;2022-11-10T10:54:43;87262.00;;;17.20
74374;BMP180;62809;51.090;-115.358;2022-11-10T10:57:27;87259.80;;;17.20
74374;BMP180;62809;51.090;-115.358;2022-11-10T11:00:26;87261.80;;;17.20
74374;BMP180;62809;51.090;-115.358;2022-11-10T11:03:09;87264.60;;;17.20
74374;BMP180;62809;51.090;-115.358;2022-11-10T11:05:37;87267.20;;;17.20
74374;BMP180;62809;51.090;-115.358;2022-11-10T11:08:05;87268.60;;;17.20
74374;BMP180;62809;51.090;-115.358;2022-11-10T11:10:34;87273.40;;;17.20
74374;BMP180;62809;51.090;-115.358;2022-11-10T11:13:26;87277.40;;;17.20
74374;BMP180;62809;51.090;-115.358;2022-11-10T11:16:04;87274.80;;;17.20
74374;BMP180;62809;51.090;-115.358;2022-11-10T11:18:37;87275.40;;;17.18
74374;BMP180;62809;51.090;-115.358;2022-11-10T11:21:22;87277.60;;;17.14
74374;BMP180;62809;51.090;-115.358;2022-11-10T11:24:29;87275.00;;;17.14
74374;BMP180;62809;51.090;-115.358;2022-11-10T11:33:05;87270.60;;;17.20
74374;BMP180;62809;51.090;-115.358;2022-11-10T11:47:59;87282.60;;;17.18
74374;BMP180;62809;51.090;-115.358;2022-11-10T11:50:42;87282.40;;;17.10
74374;BMP180;62809;51.090;-115.358;2022-11-10T11:59:10;87284.40;;;17.10
74374;BMP180;62809;51.090;-115.358;2022-11-10T12:02:41;87289.20;;;17.10
74374;BMP180;62809;51.090;-115.358;2022-11-10T12:11:23;87289.40;;;17.20
74374;BMP180;62809;51.090;-115.358;2022-11-10T12:14:26;87292.40;;;17.20
74374;BMP180;62809;51.090;-115.358;2022-11-10T12:23:26;87289.40;;;17.10
74374;BMP180;62809;51.090;-115.358;2022-11-10T12:26:06;87291.00;;;17.10
74374;BMP180;62809;51.090;-115.358;2022-11-10T12:28:50;87294.00;;;17.10
74374;BMP180;62809;51.090;-115.358;2022-11-10T12:31:22;87290.20;;;17.10
74374;BMP180;62809;51.090;-115.358;2022-11-10T12:36:31;87296.00;;;17.20
74374;BMP180;62809;51.090;-115.358;2022-11-10T12:41:57;87298.80;;;17.20
74374;BMP180;62809;51.090;-115.358;2022-11-10T12:45:06;87301.20;;;17.20
74374;BMP180;62809;51.090;-115.358;2022-11-10T12:47:44;87299.20;;;17.20
74374;BMP180;62809;51.090;-115.358;2022-11-10T12:53:26;87301.40;;;17.14
74374;BMP180;62809;51.090;-115.358;2022-11-10T12:55:59;87299.40;;;17.10
74374;BMP180;62809;51.090;-115.358;2022-11-10T12:58:28;87300.00;;;17.10
74374;BMP180;62809;51.090;-115.358;2022-11-10T13:01:11;87301.80;;;17.10
74374;BMP180;62809;51.090;-115.358;2022-11-10T13:03:56;87303.40;;;17.10
74374;BMP180;62809;51.090;-115.358;2022-11-10T13:06:31;87305.80;;;17.10
74374;BMP180;62809;51.090;-115.358;2022-11-10T13:09:02;87306.00;;;17.10
74374;BMP180;62809;51.090;-115.358;2022-11-10T13:11:35;87312.40;;;17.20
74374;BMP180;62809;51.090;-115.358;2022-11-10T13:14:29;87316.00;;;17.20
74374;BMP180;62809;51.090;-115.358;2022-11-10T13:16:57;87322.40;;;17.20
74374;BMP180;62809;51.090;-115.358;2022-11-10T13:30:00;87332.00;;;17.10
74374;BMP180;62809;51.090;-115.358;2022-11-10T13:32:33;87331.00;;;17.10
74374;BMP180;62809;51.090;-115.358;2022-11-10T13:37:56;87335.60;;;17.20
74374;BMP180;62809;51.090;-115.358;2022-11-10T13:40:25;87339.60;;;17.20
74374;BMP180;62809;51.090;-115.358;2022-11-10T13:45:41;87341.80;;;17.20
74374;BMP180;62809;51.090;-115.358;2022-11-10T13:59:00;87339.00;;;17.30
74374;BMP180;62809;51.090;-115.358;2022-11-10T14:01:37;87342.20;;;17.30
74374;BMP180;62809;51.090;-115.358;2022-11-10T14:04:08;87340.20;;;17.38
74374;BMP180;62809;51.090;-115.358;2022-11-10T14:06:58;87345.60;;;17.40
74374;BMP180;62809;51.090;-115.358;2022-11-10T14:09:36;87344.60;;;17.50
74374;BMP180;62809;51.090;-115.358;2022-11-10T14:15:34;87347.60;;;17.60
74374;BMP180;62809;51.090;-115.358;2022-11-10T14:18:20;87346.20;;;17.70
74374;BMP180;62809;51.090;-115.358;2022-11-10T14:20:57;87339.20;;;17.70
74374;BMP180;62809;51.090;-115.358;2022-11-10T14:26:51;87349.60;;;17.90
74374;BMP180;62809;51.090;-115.358;2022-11-10T14:29:32;87351.20;;;17.90
74374;BMP180;62809;51.090;-115.358;2022-11-10T14:34:47;87349.00;;;18.00
74374;BMP180;62809;51.090;-115.358;2022-11-10T14:37:28;87351.60;;;18.00
74374;BMP180;62809;51.090;-115.358;2022-11-10T14:39:58;87354.00;;;18.00
74374;BMP180;62809;51.090;-115.358;2022-11-10T14:42:30;87357.80;;;18.10
74374;BMP180;62809;51.090;-115.358;2022-11-10T14:45:19;87359.20;;;18.10
74374;BMP180;62809;51.090;-115.358;2022-11-10T14:47:58;87357.20;;;18.20
74374;BMP180;62809;51.090;-115.358;2022-11-10T14:50:27;87365.40;;;18.20
74374;BMP180;62809;51.090;-115.358;2022-11-10T14:55:43;87372.00;;;18.30
74374;BMP180;62809;51.090;-115.358;2022-11-10T14:58:39;87374.80;;;18.40
74374;BMP180;62809;51.090;-115.358;2022-11-10T15:01:24;87382.20;;;18.40
74374;BMP180;62809;51.090;-115.358;2022-11-10T15:03:53;87386.60;;;18.50
74374;BMP180;62809;51.090;-115.358;2022-11-10T15:06:24;87392.20;;;18.60
74374;BMP180;62809;51.090;-115.358;2022-11-10T15:08:54;87391.00;;;18.60
74374;BMP180;62809;51.090;-115.358;2022-11-10T15:11:48;87393.80;;;18.70
74374;BMP180;62809;51.090;-115.358;2022-11-10T15:14:39;87392.20;;;18.70
74374;BMP180;62809;51.090;-115.358;2022-11-10T15:17:16;87396.60;;;18.70
74374;BMP180;62809;51.090;-115.358;2022-11-10T15:24:48;87412.40;;;18.80
74374;BMP180;62809;51.090;-115.358;2022-11-10T15:27:30;87422.80;;;18.80
74374;BMP180;62809;51.090;-115.358;2022-11-10T15:30:00;87427.40;;;18.90
74374;BMP180;62809;51.090;-115.358;2022-11-10T15:32:41;87428.80;;;18.90
74374;BMP180;62809;51.090;-115.358;2022-11-10T15:35:35;87428.60;;;18.98
74374;BMP180;62809;51.090;-115.358;2022-11-10T15:38:28;87430.80;;;19.00
74374;BMP180;62809;51.090;-115.358;2022-11-10T15:41:12;87434.00;;;19.00
74374;BMP180;62809;51.090;-115.358;2022-11-10T15:43:41;87435.60;;;19.00
74374;BMP180;62809;51.090;-115.358;2022-11-10T15:46:19;87438.40;;;19.00
74374;BMP180;62809;51.090;-115.358;2022-11-10T15:48:52;87443.20;;;19.10
74374;BMP180;62809;51.090;-115.358;2022-11-10T15:51:22;87444.80;;;19.10